sensor_id;sensor_type;location;lat;lon;timestamp;temperature;humidity
51011;DHT22;37038;50.182;8.624;2022-11-12T00:01:11;6.30;99.90
51011;DHT22;37038;50.182;8.624;2022-11-12T00:03:59;6.50;99.90
51011;DHT22;37038;50.182;8.624;2022-11-12T00:06:47;6.60;99.90
51011;DHT22;37038;50.182;8.624;2022-11-12T00:09:35;6.60;99.90
51011;DHT22;37038;50.182;8.624;2022-11-12T00:12:26;6.70;99.90
51011;DHT22;37038;50.182;8.624;2022-11-12T00:15:14;6.80;99.90
51011;DHT22;37038;50.182;8.624;2022-11-12T00:18:02;6.80;99.90
51011;DHT22;37038;50.182;8.624;2022-11-12T00:20:50;6.70;99.90
51011;DHT22;37038;50.182;8.624;2022-11-12T00:23:38;6.50;99.90
51011;DHT22;37038;50.182;8.624;2022-11-12T00:26:26;6.70;99.90
51011;DHT22;37038;50.182;8.624;2022-11-12T00:29:14;6.80;99.90
51011;DHT22;37038;50.182;8.624;2022-11-12T00:32:02;6.80;99.90
51011;DHT22;37038;50.182;8.624;2022-11-12T00:34:51;6.60;99.90
51011;DHT22;37038;50.182;8.624;2022-11-12T00:37:39;6.20;99.90
51011;DHT22;37038;50.182;8.624;2022-11-12T00:40:28;6.10;99.90
51011;DHT22;37038;50.182;8.624;2022-11-12T00:43:16;6.10;99.90
51011;DHT22;37038;50.182;8.624;2022-11-12T00:46:04;6.10;99.90
51011;DHT22;37038;50.182;8.624;2022-11-12T00:48:52;5.70;99.90
51011;DHT22;37038;50.182;8.624;2022-11-12T00:51:40;5.80;99.90
51011;DHT22;37038;50.182;8.624;2022-11-12T00:54:31;5.70;99.90
51011;DHT22;37038;50.182;8.624;2022-11-12T00:57:22;5.60;99.90
51011;DHT22;37038;50.182;8.624;2022-11-12T01:00:14;5.50;99.90
51011;DHT22;37038;50.182;8.624;2022-11-12T01:03:03;5.50;99.90
51011;DHT22;37038;50.182;8.624;2022-11-12T01:05:51;5.40;99.90
51011;DHT22;37038;50.182;8.624;2022-11-12T01:08:43;5.50;99.90
51011;DHT22;37038;50.182;8.624;2022-11-12T01:11:31;5.70;99.90
51011;DHT22;37038;50.182;8.624;2022-11-12T01:14:19;5.50;99.90
51011;DHT22;37038;50.182;8.624;2022-11-12T01:17:09;5.70;99.90
51011;DHT22;37038;50.182;8.624;2022-11-12T01:19:57;6.00;99.90
51011;DHT22;37038;50.182;8.624;2022-11-12T01:22:45;6.00;99.90
51011;DHT22;37038;50.182;8.624;2022-11-12T01:25:36;6.10;99.90
51011;DHT22;37038;50.182;8.624;2022-11-12T01:28:25;6.20;99.90
51011;DHT22;37038;50.182;8.624;2022-11-12T01:31:37;6.50;99.90
51011;DHT22;37038;50.182;8.624;2022-11-12T01:34:25;6.60;99.90
51011;DHT22;37038;50.182;8.624;2022-11-12T01:37:13;6.90;99.90
51011;DHT22;37038;50.182;8.624;2022-11-12T01:40:01;7.10;99.90
51011;DHT22;37038;50.182;8.624;2022-11-12T01:42:52;7.30;99.90
51011;DHT22;37038;50.182;8.624;2022-11-12T01:45:43;7.20;99.90
51011;DHT22;37038;50.182;8.624;2022-11-12T01:48:37;7.20;99.90
51011;DHT22;37038;50.182;8.624;2022-11-12T01:51:39;7.20;99.90
51011;DHT22;37038;50.182;8.624;2022-11-12T01:54:31;7.00;99.90
51011;DHT22;37038;50.182;8.624;2022-11-12T01:57:36;7.20;99.90
51011;DHT22;37038;50.182;8.624;2022-11-12T02:00:26;7.10;99.90
51011;DHT22;37038;50.182;8.624;2022-11-12T02:03:20;7.10;99.90
51011;DHT22;37038;50.182;8.624;2022-11-12T02:06:13;7.20;99.90
51011;DHT22;37038;50.182;8.624;2022-11-12T02:09:02;6.90;99.90
51011;DHT22;37038;50.182;8.624;2022-11-12T02:11:52;7.00;99.90
51011;DHT22;37038;50.182;8.624;2022-11-12T02:14:40;7.10;99.90
51011;DHT22;37038;50.182;8.624;2022-11-12T02:17:28;6.80;99.90
51011;DHT22;37038;50.182;8.624;2022-11-12T02:20:17;6.90;99.90
51011;DHT22;37038;50.182;8.624;2022-11-12T02:23:06;7.10;99.90
51011;DHT22;37038;50.182;8.624;2022-11-12T02:25:54;7.20;99.90
51011;DHT22;37038;50.182;8.624;2022-11-12T02:28:44;7.30;99.90
51011;DHT22;37038;50.182;8.624;2022-11-12T02:31:32;7.40;99.90
51011;DHT22;37038;50.182;8.624;2022-11-12T02:34:20;7.40;99.90
51011;DHT22;37038;50.182;8.624;2022-11-12T02:37:08;7.40;99.90
51011;DHT22;37038;50.182;8.624;2022-11-12T02:39:56;7.50;99.90
51011;DHT22;37038;50.182;8.624;2022-11-12T02:42:44;7.50;99.90
51011;DHT22;37038;50.182;8.624;2022-11-12T02:45:32;7.50;99.90
51011;DHT22;37038;50.182;8.624;2022-11-12T02:48:20;7.50;99.90
51011;DHT22;37038;50.182;8.624;2022-11-12T02:51:14;7.50;99.90
51011;DHT22;37038;50.182;8.624;2022-11-12T02:54:02;7.50;99.90
51011;DHT22;37038;50.182;8.624;2022-11-12T02:56:51;7.50;99.90
51011;DHT22;37038;50.182;8.624;2022-11-12T02:59:38;7.30;99.90
51011;DHT22;37038;50.182;8.624;2022-11-12T03:02:27;7.20;99.90
51011;DHT22;37038;50.182;8.624;2022-11-12T03:05:15;7.30;99.90
51011;DHT22;37038;50.182;8.624;2022-11-12T03:08:07;7.40;99.90
51011;DHT22;37038;50.182;8.624;2022-11-12T03:10:55;7.40;99.90
51011;DHT22;37038;50.182;8.624;2022-11-12T03:13:43;7.30;99.90
51011;DHT22;37038;50.182;8.624;2022-11-12T03:16:31;7.00;99.90
51011;DHT22;37038;50.182;8.624;2022-11-12T03:19:20;6.90;99.90
51011;DHT22;37038;50.182;8.624;2022-11-12T03:22:08;6.80;99.90
51011;DHT22;37038;50.182;8.624;2022-11-12T03:24:56;6.70;99.90
51011;DHT22;37038;50.182;8.624;2022-11-12T03:27:44;6.70;99.90
51011;DHT22;37038;50.182;8.624;2022-11-12T03:30:35;6.90;99.90
51011;DHT22;37038;50.182;8.624;2022-11-12T03:33:24;6.80;99.90
51011;DHT22;37038;50.182;8.624;2022-11-12T03:36:12;6.80;99.90
51011;DHT22;37038;50.182;8.624;2022-11-12T03:39:00;6.70;99.90
51011;DHT22;37038;50.182;8.624;2022-11-12T03:41:48;6.70;99.90
51011;DHT22;37038;50.182;8.624;2022-11-12T03:44:39;6.50;99.90
51011;DHT22;37038;50.182;8.624;2022-11-12T03:47:27;6.10;99.90
51011;DHT22;37038;50.182;8.624;2022-11-12T03:50:16;6.00;99.90
51011;DHT22;37038;50.182;8.624;2022-11-12T03:53:06;5.90;99.90
51011;DHT22;37038;50.182;8.624;2022-11-12T03:55:54;5.80;99.90
51011;DHT22;37038;50.182;8.624;2022-11-12T03:58:42;5.80;99.90
51011;DHT22;37038;50.182;8.624;2022-11-12T04:01:30;5.90;99.90
51011;DHT22;37038;50.182;8.624;2022-11-12T04:04:18;5.90;99.90
51011;DHT22;37038;50.182;8.624;2022-11-12T04:07:07;6.00;99.90
51011;DHT22;37038;50.182;8.624;2022-11-12T04:10:13;6.10;99.90
51011;DHT22;37038;50.182;8.624;2022-11-12T04:13:01;6.30;99.90
51011;DHT22;37038;50.182;8.624;2022-11-12T04:16:16;6.30;99.90
51011;DHT22;37038;50.182;8.624;2022-11-12T04:19:24;6.50;99.90
51011;DHT22;37038;50.182;8.624;2022-11-12T04:22:31;6.40;99.90
51011;DHT22;37038;50.182;8.624;2022-11-12T04:25:19;6.20;99.90
51011;DHT22;37038;50.182;8.624;2022-11-12T04:28:25;6.20;99.90
51011;DHT22;37038;50.182;8.624;2022-11-12T04:31:14;6.00;99.90
51011;DHT22;37038;50.182;8.624;2022-11-12T04:34:02;6.10;99.90
51011;DHT22;37038;50.182;8.624;2022-11-12T04:37:08;6.20;99.90
51011;DHT22;37038;50.182;8.624;2022-11-12T04:39:59;6.30;99.90
51011;DHT22;37038;50.182;8.624;2022-11-12T04:43:10;6.20;99.90
51011;DHT22;37038;50.182;8.624;2022-11-12T04:46:18;6.20;99.90
51011;DHT22;37038;50.182;8.624;2022-11-12T04:49:06;6.40;99.90
51011;DHT22;37038;50.182;8.624;2022-11-12T04:51:54;6.30;99.90
51011;DHT22;37038;50.182;8.624;2022-11-12T04:54:54;6.10;99.90
51011;DHT22;37038;50.182;8.624;2022-11-12T04:57:42;6.30;99.90
51011;DHT22;37038;50.182;8.624;2022-11-12T05:00:30;6.40;99.90
51011;DHT22;37038;50.182;8.624;2022-11-12T05:03:18;6.50;99.90
51011;DHT22;37038;50.182;8.624;2022-11-12T05:06:06;6.40;99.90
51011;DHT22;37038;50.182;8.624;2022-11-12T05:09:17;6.60;99.90
51011;DHT22;37038;50.182;8.624;2022-11-12T05:12:06;6.50;99.90
51011;DHT22;37038;50.182;8.624;2022-11-12T05:14:54;6.40;99.90
51011;DHT22;37038;50.182;8.624;2022-11-12T05:17:42;6.50;99.90
51011;DHT22;37038;50.182;8.624;2022-11-12T05:20:30;6.50;99.90
51011;DHT22;37038;50.182;8.624;2022-11-12T05:23:18;6.50;99.90
51011;DHT22;37038;50.182;8.624;2022-11-12T05:26:06;6.40;99.90
51011;DHT22;37038;50.182;8.624;2022-11-12T05:28:54;6.60;99.90
51011;DHT22;37038;50.182;8.624;2022-11-12T05:31:42;6.60;99.90
51011;DHT22;37038;50.182;8.624;2022-11-12T05:34:30;6.60;99.90
51011;DHT22;37038;50.182;8.624;2022-11-12T05:37:19;6.50;99.90
51011;DHT22;37038;50.182;8.624;2022-11-12T05:40:08;6.60;99.90
51011;DHT22;37038;50.182;8.624;2022-11-12T05:42:56;6.60;99.90
51011;DHT22;37038;50.182;8.624;2022-11-12T05:45:44;6.70;99.90
51011;DHT22;37038;50.182;8.624;2022-11-12T05:48:32;6.60;99.90
51011;DHT22;37038;50.182;8.624;2022-11-12T05:51:20;6.70;99.90
51011;DHT22;37038;50.182;8.624;2022-11-12T05:54:08;6.80;99.90
51011;DHT22;37038;50.182;8.624;2022-11-12T05:56:59;6.70;99.90
51011;DHT22;37038;50.182;8.624;2022-11-12T05:59:47;6.80;99.90
51011;DHT22;37038;50.182;8.624;2022-11-12T06:02:34;6.70;99.90
51011;DHT22;37038;50.182;8.624;2022-11-12T06:05:23;6.80;99.90
51011;DHT22;37038;50.182;8.624;2022-11-12T06:08:11;6.80;99.90
51011;DHT22;37038;50.182;8.624;2022-11-12T06:10:59;6.90;99.90
51011;DHT22;37038;50.182;8.624;2022-11-12T06:13:47;6.70;99.90
51011;DHT22;37038;50.182;8.624;2022-11-12T06:16:35;6.30;99.90
51011;DHT22;37038;50.182;8.624;2022-11-12T06:19:23;6.30;99.90
51011;DHT22;37038;50.182;8.624;2022-11-12T06:22:11;6.30;99.90
51011;DHT22;37038;50.182;8.624;2022-11-12T06:24:59;6.10;99.90
51011;DHT22;37038;50.182;8.624;2022-11-12T06:27:47;6.20;99.90
51011;DHT22;37038;50.182;8.624;2022-11-12T06:30:35;6.20;99.90
51011;DHT22;37038;50.182;8.624;2022-11-12T06:33:23;6.10;99.90
51011;DHT22;37038;50.182;8.624;2022-11-12T06:36:13;6.00;99.90
51011;DHT22;37038;50.182;8.624;2022-11-12T06:39:03;5.80;99.90
51011;DHT22;37038;50.182;8.624;2022-11-12T06:41:51;5.80;99.90
51011;DHT22;37038;50.182;8.624;2022-11-12T06:44:39;5.90;99.90
51011;DHT22;37038;50.182;8.624;2022-11-12T06:47:27;5.80;99.90
51011;DHT22;37038;50.182;8.624;2022-11-12T06:50:15;5.80;99.90
51011;DHT22;37038;50.182;8.624;2022-11-12T06:53:03;5.80;99.90
51011;DHT22;37038;50.182;8.624;2022-11-12T06:55:51;5.90;99.90
51011;DHT22;37038;50.182;8.624;2022-11-12T06:58:39;5.80;99.90
51011;DHT22;37038;50.182;8.624;2022-11-12T07:01:28;6.00;99.90
51011;DHT22;37038;50.182;8.624;2022-11-12T07:04:16;6.20;99.90
51011;DHT22;37038;50.182;8.624;2022-11-12T07:07:04;6.20;99.90
51011;DHT22;37038;50.182;8.624;2022-11-12T07:09:57;6.30;99.90
51011;DHT22;37038;50.182;8.624;2022-11-12T07:12:45;6.40;99.90
51011;DHT22;37038;50.182;8.624;2022-11-12T07:15:42;6.40;99.90
51011;DHT22;37038;50.182;8.624;2022-11-12T07:18:31;6.40;99.90
51011;DHT22;37038;50.182;8.624;2022-11-12T07:21:21;6.60;99.90
51011;DHT22;37038;50.182;8.624;2022-11-12T07:24:10;6.60;99.90
51011;DHT22;37038;50.182;8.624;2022-11-12T07:26:58;6.60;99.90
51011;DHT22;37038;50.182;8.624;2022-11-12T07:29:47;6.70;99.90
51011;DHT22;37038;50.182;8.624;2022-11-12T07:32:37;6.80;99.90
51011;DHT22;37038;50.182;8.624;2022-11-12T07:35:33;6.80;99.90
51011;DHT22;37038;50.182;8.624;2022-11-12T07:38:24;6.80;99.90
51011;DHT22;37038;50.182;8.624;2022-11-12T07:41:16;6.90;99.90
51011;DHT22;37038;50.182;8.624;2022-11-12T07:44:05;7.00;99.90
51011;DHT22;37038;50.182;8.624;2022-11-12T07:46:54;7.00;99.90
51011;DHT22;37038;50.182;8.624;2022-11-12T07:49:46;7.00;99.90
51011;DHT22;37038;50.182;8.624;2022-11-12T07:52:35;7.00;99.90
51011;DHT22;37038;50.182;8.624;2022-11-12T07:55:29;7.00;99.90
51011;DHT22;37038;50.182;8.624;2022-11-12T07:58:18;7.10;99.90
51011;DHT22;37038;50.182;8.624;2022-11-12T08:01:29;7.20;99.90
51011;DHT22;37038;50.182;8.624;2022-11-12T08:04:18;7.30;99.90
51011;DHT22;37038;50.182;8.624;2022-11-12T08:07:06;7.50;99.90
51011;DHT22;37038;50.182;8.624;2022-11-12T08:09:54;7.60;99.90
51011;DHT22;37038;50.182;8.624;2022-11-12T08:12:48;7.60;99.90
51011;DHT22;37038;50.182;8.624;2022-11-12T08:15:36;7.60;99.90
51011;DHT22;37038;50.182;8.624;2022-11-12T08:18:27;7.70;99.90
51011;DHT22;37038;50.182;8.624;2022-11-12T08:21:16;8.00;99.90
51011;DHT22;37038;50.182;8.624;2022-11-12T08:24:05;8.00;99.90
51011;DHT22;37038;50.182;8.624;2022-11-12T08:26:53;8.10;99.90
51011;DHT22;37038;50.182;8.624;2022-11-12T08:29:43;8.50;99.90
51011;DHT22;37038;50.182;8.624;2022-11-12T08:32:31;8.30;99.90
51011;DHT22;37038;50.182;8.624;2022-11-12T08:35:28;7.90;99.90
51011;DHT22;37038;50.182;8.624;2022-11-12T08:38:16;7.50;99.90
51011;DHT22;37038;50.182;8.624;2022-11-12T08:41:10;6.90;99.90
51011;DHT22;37038;50.182;8.624;2022-11-12T08:44:01;7.00;99.90
51011;DHT22;37038;50.182;8.624;2022-11-12T08:46:55;7.30;99.90
51011;DHT22;37038;50.182;8.624;2022-11-12T08:49:43;7.60;99.90
51011;DHT22;37038;50.182;8.624;2022-11-12T08:52:37;7.60;99.90
51011;DHT22;37038;50.182;8.624;2022-11-12T08:55:25;7.50;99.90
51011;DHT22;37038;50.182;8.624;2022-11-12T08:58:16;7.50;99.90
51011;DHT22;37038;50.182;8.624;2022-11-12T09:01:06;7.80;99.90
51011;DHT22;37038;50.182;8.624;2022-11-12T09:03:55;7.50;99.90
51011;DHT22;37038;50.182;8.624;2022-11-12T09:06:46;7.30;99.90
51011;DHT22;37038;50.182;8.624;2022-11-12T09:09:43;7.40;99.90
51011;DHT22;37038;50.182;8.624;2022-11-12T09:12:32;7.60;99.90
51011;DHT22;37038;50.182;8.624;2022-11-12T09:15:38;7.70;99.90
51011;DHT22;37038;50.182;8.624;2022-11-12T09:18:41;7.40;99.90
51011;DHT22;37038;50.182;8.624;2022-11-12T09:21:32;7.50;99.90
51011;DHT22;37038;50.182;8.624;2022-11-12T09:24:28;7.70;99.90
51011;DHT22;37038;50.182;8.624;2022-11-12T09:27:16;7.50;99.90
51011;DHT22;37038;50.182;8.624;2022-11-12T09:30:05;7.30;99.90
51011;DHT22;37038;50.182;8.624;2022-11-12T09:32:57;7.50;99.90
51011;DHT22;37038;50.182;8.624;2022-11-12T09:35:48;8.00;99.90
51011;DHT22;37038;50.182;8.624;2022-11-12T09:38:39;8.20;99.90
51011;DHT22;37038;50.182;8.624;2022-11-12T09:41:39;8.30;99.90
51011;DHT22;37038;50.182;8.624;2022-11-12T09:44:34;7.80;99.90
51011;DHT22;37038;50.182;8.624;2022-11-12T09:47:35;7.60;99.90
51011;DHT22;37038;50.182;8.624;2022-11-12T09:50:35;8.00;99.90
51011;DHT22;37038;50.182;8.624;2022-11-12T09:53:54;8.00;99.90
51011;DHT22;37038;50.182;8.624;2022-11-12T09:57:11;7.90;99.90
51011;DHT22;37038;50.182;8.624;2022-11-12T10:00:08;7.30;99.90
51011;DHT22;37038;50.182;8.624;2022-11-12T10:03:52;7.50;99.90
51011;DHT22;37038;50.182;8.624;2022-11-12T10:10:34;6.70;99.90
51011;DHT22;37038;50.182;8.624;2022-11-12T10:17:04;7.40;99.90
51011;DHT22;37038;50.182;8.624;2022-11-12T10:20:12;7.90;99.90
51011;DHT22;37038;50.182;8.624;2022-11-12T10:23:19;8.60;99.90
51011;DHT22;37038;50.182;8.624;2022-11-12T10:26:23;8.70;99.90
51011;DHT22;37038;50.182;8.624;2022-11-12T10:32:42;9.30;99.90
51011;DHT22;37038;50.182;8.624;2022-11-12T10:35:43;9.20;99.90
51011;DHT22;37038;50.182;8.624;2022-11-12T10:38:40;9.40;99.90
51011;DHT22;37038;50.182;8.624;2022-11-12T10:42:05;9.30;99.90
51011;DHT22;37038;50.182;8.624;2022-11-12T10:45:20;9.20;99.90
51011;DHT22;37038;50.182;8.624;2022-11-12T10:48:29;8.90;99.90
51011;DHT22;37038;50.182;8.624;2022-11-12T10:51:31;8.70;99.90
51011;DHT22;37038;50.182;8.624;2022-11-12T10:54:42;9.00;99.90
51011;DHT22;37038;50.182;8.624;2022-11-12T10:57:41;8.60;99.90
51011;DHT22;37038;50.182;8.624;2022-11-12T11:00:30;8.70;99.90
51011;DHT22;37038;50.182;8.624;2022-11-12T11:03:32;9.20;99.90
51011;DHT22;37038;50.182;8.624;2022-11-12T11:06:28;9.30;99.90
51011;DHT22;37038;50.182;8.624;2022-11-12T11:13:27;8.90;99.90
51011;DHT22;37038;50.182;8.624;2022-11-12T11:16:51;8.80;99.90
51011;DHT22;37038;50.182;8.624;2022-11-12T11:19:57;9.10;99.90
51011;DHT22;37038;50.182;8.624;2022-11-12T11:22:45;9.00;99.90
51011;DHT22;37038;50.182;8.624;2022-11-12T11:25:42;9.20;99.90
51011;DHT22;37038;50.182;8.624;2022-11-12T11:29:07;9.40;99.90
51011;DHT22;37038;50.182;8.624;2022-11-12T11:36:53;9.40;99.90
51011;DHT22;37038;50.182;8.624;2022-11-12T11:40:09;9.70;99.90
51011;DHT22;37038;50.182;8.624;2022-11-12T11:47:22;10.70;99.90
51011;DHT22;37038;50.182;8.624;2022-11-12T11:55:02;10.10;99.90
51011;DHT22;37038;50.182;8.624;2022-11-12T12:02:04;10.50;99.90
51011;DHT22;37038;50.182;8.624;2022-11-12T12:12:03;9.30;99.90
51011;DHT22;37038;50.182;8.624;2022-11-12T12:15:53;9.60;99.90
51011;DHT22;37038;50.182;8.624;2022-11-12T12:19:12;9.10;99.90
51011;DHT22;37038;50.182;8.624;2022-11-12T12:22:35;9.40;99.90
51011;DHT22;37038;50.182;8.624;2022-11-12T12:25:37;10.10;99.90
51011;DHT22;37038;50.182;8.624;2022-11-12T12:28:38;10.30;99.90
51011;DHT22;37038;50.182;8.624;2022-11-12T12:31:39;10.40;99.90
51011;DHT22;37038;50.182;8.624;2022-11-12T12:34:40;10.70;99.90
51011;DHT22;37038;50.182;8.624;2022-11-12T12:40:43;10.40;99.90
51011;DHT22;37038;50.182;8.624;2022-11-12T12:43:44;10.80;99.90
51011;DHT22;37038;50.182;8.624;2022-11-12T12:46:57;10.70;99.90
51011;DHT22;37038;50.182;8.624;2022-11-12T12:49:48;10.90;99.90
51011;DHT22;37038;50.182;8.624;2022-11-12T12:53:14;10.90;99.90
51011;DHT22;37038;50.182;8.624;2022-11-12T12:59:18;9.30;99.90
51011;DHT22;37038;50.182;8.624;2022-11-12T13:02:19;9.50;99.90
51011;DHT22;37038;50.182;8.624;2022-11-12T13:05:32;9.80;99.90
51011;DHT22;37038;50.182;8.624;2022-11-12T13:08:25;10.30;99.90
51011;DHT22;37038;50.182;8.624;2022-11-12T13:15:10;10.70;99.90
51011;DHT22;37038;50.182;8.624;2022-11-12T13:18:00;10.40;99.90
51011;DHT22;37038;50.182;8.624;2022-11-12T13:21:08;9.70;99.90
51011;DHT22;37038;50.182;8.624;2022-11-12T13:24:01;9.70;99.90
51011;DHT22;37038;50.182;8.624;2022-11-12T13:26:57;10.00;99.90
51011;DHT22;37038;50.182;8.624;2022-11-12T13:29:46;10.30;99.90
51011;DHT22;37038;50.182;8.624;2022-11-12T13:35:35;9.60;99.90
51011;DHT22;37038;50.182;8.624;2022-11-12T13:38:24;10.10;99.90
51011;DHT22;37038;50.182;8.624;2022-11-12T13:41:16;9.70;99.90
51011;DHT22;37038;50.182;8.624;2022-11-12T13:44:26;9.90;99.90
51011;DHT22;37038;50.182;8.624;2022-11-12T13:47:19;10.60;99.90
51011;DHT22;37038;50.182;8.624;2022-11-12T13:50:12;10.80;99.90
51011;DHT22;37038;50.182;8.624;2022-11-12T13:53:07;11.10;99.90
51011;DHT22;37038;50.182;8.624;2022-11-12T13:55:57;10.90;99.90
51011;DHT22;37038;50.182;8.624;2022-11-12T13:58:45;11.00;99.90
51011;DHT22;37038;50.182;8.624;2022-11-12T14:01:33;11.00;99.90
51011;DHT22;37038;50.182;8.624;2022-11-12T14:04:22;10.90;99.90
51011;DHT22;37038;50.182;8.624;2022-11-12T14:07:39;10.60;99.90
51011;DHT22;37038;50.182;8.624;2022-11-12T14:18:07;10.40;99.90
51011;DHT22;37038;50.182;8.624;2022-11-12T14:21:30;10.30;99.90
51011;DHT22;37038;50.182;8.624;2022-11-12T14:24:19;9.90;99.90
51011;DHT22;37038;50.182;8.624;2022-11-12T14:27:32;9.70;99.90
51011;DHT22;37038;50.182;8.624;2022-11-12T14:30:24;9.40;99.90
51011;DHT22;37038;50.182;8.624;2022-11-12T14:33:20;9.20;99.90
51011;DHT22;37038;50.182;8.624;2022-11-12T14:36:12;9.40;99.90
51011;DHT22;37038;50.182;8.624;2022-11-12T14:39:05;9.30;99.90
51011;DHT22;37038;50.182;8.624;2022-11-12T14:41:55;9.30;99.90
51011;DHT22;37038;50.182;8.624;2022-11-12T14:44:44;9.20;99.90
51011;DHT22;37038;50.182;8.624;2022-11-12T14:47:33;9.20;99.90
51011;DHT22;37038;50.182;8.624;2022-11-12T14:53:20;9.60;99.90
51011;DHT22;37038;50.182;8.624;2022-11-12T14:56:21;9.50;99.90
51011;DHT22;37038;50.182;8.624;2022-11-12T14:59:22;9.40;99.90
51011;DHT22;37038;50.182;8.624;2022-11-12T15:02:16;9.10;99.90
51011;DHT22;37038;50.182;8.624;2022-11-12T15:05:24;9.10;99.90
51011;DHT22;37038;50.182;8.624;2022-11-12T15:08:27;9.20;99.90
51011;DHT22;37038;50.182;8.624;2022-11-12T15:11:27;9.40;99.90
51011;DHT22;37038;50.182;8.624;2022-11-12T15:14:21;9.40;99.90
51011;DHT22;37038;50.182;8.624;2022-11-12T15:17:41;9.30;99.90
51011;DHT22;37038;50.182;8.624;2022-11-12T15:20:29;9.30;99.90
51011;DHT22;37038;50.182;8.624;2022-11-12T15:23:17;8.90;99.90
51011;DHT22;37038;50.182;8.624;2022-11-12T15:26:13;8.80;99.90
51011;DHT22;37038;50.182;8.624;2022-11-12T15:32:25;8.20;99.90
51011;DHT22;37038;50.182;8.624;2022-11-12T15:38:26;7.70;99.90
51011;DHT22;37038;50.182;8.624;2022-11-12T15:41:26;7.40;99.90
51011;DHT22;37038;50.182;8.624;2022-11-12T15:44:15;7.20;99.90
51011;DHT22;37038;50.182;8.624;2022-11-12T15:47:03;7.20;99.90
51011;DHT22;37038;50.182;8.624;2022-11-12T15:49:54;7.10;99.90
51011;DHT22;37038;50.182;8.624;2022-11-12T15:52:43;7.40;99.90
51011;DHT22;37038;50.182;8.624;2022-11-12T15:55:33;7.60;99.90
51011;DHT22;37038;50.182;8.624;2022-11-12T15:58:31;7.60;99.90
51011;DHT22;37038;50.182;8.624;2022-11-12T16:01:20;7.70;99.90
51011;DHT22;37038;50.182;8.624;2022-11-12T16:04:11;7.80;99.90
51011;DHT22;37038;50.182;8.624;2022-11-12T16:06:59;8.00;99.90
51011;DHT22;37038;50.182;8.624;2022-11-12T16:09:47;8.00;99.90
51011;DHT22;37038;50.182;8.624;2022-11-12T16:12:35;8.10;99.90
51011;DHT22;37038;50.182;8.624;2022-11-12T16:15:24;8.10;99.90
51011;DHT22;37038;50.182;8.624;2022-11-12T16:18:12;8.10;99.90
51011;DHT22;37038;50.182;8.624;2022-11-12T16:21:00;8.10;99.90
51011;DHT22;37038;50.182;8.624;2022-11-12T16:23:48;7.90;99.90
51011;DHT22;37038;50.182;8.624;2022-11-12T16:26:36;8.00;99.90
51011;DHT22;37038;50.182;8.624;2022-11-12T16:29:24;8.00;99.90
51011;DHT22;37038;50.182;8.624;2022-11-12T16:32:13;7.90;99.90
51011;DHT22;37038;50.182;8.624;2022-11-12T16:35:01;7.80;99.90
51011;DHT22;37038;50.182;8.624;2022-11-12T16:37:52;7.70;99.90
51011;DHT22;37038;50.182;8.624;2022-11-12T16:40:41;7.90;99.90
51011;DHT22;37038;50.182;8.624;2022-11-12T16:43:30;7.90;99.90
51011;DHT22;37038;50.182;8.624;2022-11-12T16:46:28;7.80;99.90
51011;DHT22;37038;50.182;8.624;2022-11-12T16:49:17;7.80;99.90
51011;DHT22;37038;50.182;8.624;2022-11-12T16:52:07;7.70;99.90
51011;DHT22;37038;50.182;8.624;2022-11-12T16:54:55;7.70;99.90
51011;DHT22;37038;50.182;8.624;2022-11-12T16:57:50;7.70;99.90
51011;DHT22;37038;50.182;8.624;2022-11-12T17:00:40;7.60;99.90
51011;DHT22;37038;50.182;8.624;2022-11-12T17:03:29;7.60;99.90
51011;DHT22;37038;50.182;8.624;2022-11-12T17:06:17;7.60;99.90
51011;DHT22;37038;50.182;8.624;2022-11-12T17:09:07;7.60;99.90
51011;DHT22;37038;50.182;8.624;2022-11-12T17:11:57;7.60;99.90
51011;DHT22;37038;50.182;8.624;2022-11-12T17:14:45;7.50;99.90
51011;DHT22;37038;50.182;8.624;2022-11-12T17:17:33;7.50;99.90
51011;DHT22;37038;50.182;8.624;2022-11-12T17:20:22;7.70;99.90
51011;DHT22;37038;50.182;8.624;2022-11-12T17:23:10;7.80;99.90
51011;DHT22;37038;50.182;8.624;2022-11-12T17:26:03;7.90;99.90
51011;DHT22;37038;50.182;8.624;2022-11-12T17:28:52;7.90;99.90
51011;DHT22;37038;50.182;8.624;2022-11-12T17:31:48;7.70;99.90
51011;DHT22;37038;50.182;8.624;2022-11-12T17:34:36;7.70;99.90
51011;DHT22;37038;50.182;8.624;2022-11-12T17:37:24;7.70;99.90
51011;DHT22;37038;50.182;8.624;2022-11-12T17:40:24;7.60;99.90
51011;DHT22;37038;50.182;8.624;2022-11-12T17:43:12;7.80;99.90
51011;DHT22;37038;50.182;8.624;2022-11-12T17:46:05;7.80;99.90
51011;DHT22;37038;50.182;8.624;2022-11-12T17:48:55;7.80;99.90
51011;DHT22;37038;50.182;8.624;2022-11-12T17:51:43;7.90;99.90
51011;DHT22;37038;50.182;8.624;2022-11-12T17:54:31;8.00;99.90
51011;DHT22;37038;50.182;8.624;2022-11-12T17:57:19;7.90;99.90
51011;DHT22;37038;50.182;8.624;2022-11-12T18:00:07;7.50;99.90
51011;DHT22;37038;50.182;8.624;2022-11-12T18:02:56;7.50;99.90
51011;DHT22;37038;50.182;8.624;2022-11-12T18:05:45;7.50;99.90
51011;DHT22;37038;50.182;8.624;2022-11-12T18:08:34;7.50;99.90
51011;DHT22;37038;50.182;8.624;2022-11-12T18:11:26;7.50;99.90
51011;DHT22;37038;50.182;8.624;2022-11-12T18:14:15;7.60;99.90
51011;DHT22;37038;50.182;8.624;2022-11-12T18:17:03;7.70;99.90
51011;DHT22;37038;50.182;8.624;2022-11-12T18:19:51;7.60;99.90
51011;DHT22;37038;50.182;8.624;2022-11-12T18:22:39;7.40;99.90
51011;DHT22;37038;50.182;8.624;2022-11-12T18:25:31;7.40;99.90
51011;DHT22;37038;50.182;8.624;2022-11-12T18:28:21;7.40;99.90
51011;DHT22;37038;50.182;8.624;2022-11-12T18:31:11;7.30;99.90
51011;DHT22;37038;50.182;8.624;2022-11-12T18:33:59;7.30;99.90
51011;DHT22;37038;50.182;8.624;2022-11-12T18:36:47;7.20;99.90
51011;DHT22;37038;50.182;8.624;2022-11-12T18:39:36;7.30;99.90
51011;DHT22;37038;50.182;8.624;2022-11-12T18:42:23;7.30;99.90
51011;DHT22;37038;50.182;8.624;2022-11-12T18:45:12;7.40;99.90
51011;DHT22;37038;50.182;8.624;2022-11-12T18:48:00;7.50;99.90
51011;DHT22;37038;50.182;8.624;2022-11-12T18:50:48;7.60;99.90
51011;DHT22;37038;50.182;8.624;2022-11-12T18:53:37;7.80;99.90
51011;DHT22;37038;50.182;8.624;2022-11-12T18:56:25;7.90;99.90
51011;DHT22;37038;50.182;8.624;2022-11-12T18:59:13;7.70;99.90
51011;DHT22;37038;50.182;8.624;2022-11-12T19:02:01;7.50;99.90
51011;DHT22;37038;50.182;8.624;2022-11-12T19:04:49;7.50;99.90
51011;DHT22;37038;50.182;8.624;2022-11-12T19:07:37;7.50;99.90
51011;DHT22;37038;50.182;8.624;2022-11-12T19:10:28;7.30;99.90
51011;DHT22;37038;50.182;8.624;2022-11-12T19:13:15;7.20;99.90
51011;DHT22;37038;50.182;8.624;2022-11-12T19:16:07;7.20;99.90
51011;DHT22;37038;50.182;8.624;2022-11-12T19:19:00;7.20;99.90
51011;DHT22;37038;50.182;8.624;2022-11-12T19:21:48;7.30;99.90
51011;DHT22;37038;50.182;8.624;2022-11-12T19:24:36;7.40;99.90
51011;DHT22;37038;50.182;8.624;2022-11-12T19:27:24;7.10;99.90
51011;DHT22;37038;50.182;8.624;2022-11-12T19:30:12;7.20;99.90
51011;DHT22;37038;50.182;8.624;2022-11-12T19:33:01;7.10;99.90
51011;DHT22;37038;50.182;8.624;2022-11-12T19:35:49;7.10;99.90
51011;DHT22;37038;50.182;8.624;2022-11-12T19:38:37;7.10;99.90